createdAt,value
2018-08-22T00:00:15.806Z,0.00
2018-08-22T00:01:15.484Z,0.00
2018-08-22T00:02:15.472Z,0.00
2018-08-22T00:03:15.518Z,0.00
2018-08-22T00:04:16.250Z,0.00
2018-08-22T00:05:15.778Z,0.00
2018-08-22T00:06:15.597Z,0.00
2018-08-22T00:07:15.534Z,0.00
2018-08-22T00:08:15.399Z,0.00
2018-08-22T00:09:15.512Z,0.00
2018-08-22T00:10:15.344Z,0.00
2018-08-22T00:11:15.603Z,0.00
2018-08-22T00:12:15.625Z,0.00
2018-08-22T00:13:15.312Z,0.00
2018-08-22T00:14:15.443Z,0.00
2018-08-22T00:15:15.500Z,0.00
2018-08-22T00:16:15.360Z,0.00
2018-08-22T00:17:15.506Z,0.00
2018-08-22T00:18:15.327Z,0.00
2018-08-22T00:19:15.558Z,0.00
2018-08-22T00:20:15.257Z,0.00
2018-08-22T00:21:15.223Z,0.00
2018-08-22T00:22:15.711Z,0.00
2018-08-22T00:23:15.281Z,0.00
2018-08-22T00:24:15.905Z,0.00
2018-08-22T00:25:15.610Z,0.00
2018-08-22T00:26:15.335Z,0.00
2018-08-22T00:27:15.297Z,0.00
2018-08-22T00:28:15.298Z,0.00
2018-08-22T00:29:15.378Z,0.00
2018-08-22T00:30:15.617Z,0.00
2018-08-22T00:31:15.097Z,0.00
2018-08-22T00:32:15.533Z,0.00
2018-08-22T00:33:15.071Z,0.00
2018-08-22T00:34:15.059Z,0.00
2018-08-22T00:35:15.061Z,0.00
2018-08-22T00:36:15.103Z,0.00
2018-08-22T00:37:15.556Z,0.00
2018-08-22T00:38:15.680Z,0.00
2018-08-22T00:39:15.079Z,0.00
2018-08-22T00:40:15.039Z,0.00
2018-08-22T00:41:15.023Z,0.00
2018-08-22T00:42:14.987Z,0.00
2018-08-22T00:43:14.954Z,0.00
2018-08-22T00:44:15.320Z,0.00
2018-08-22T00:45:15.539Z,0.00
2018-08-22T00:46:15.439Z,0.00
2018-08-22T00:47:14.928Z,0.00
2018-08-22T00:48:14.900Z,0.00
2018-08-22T00:49:14.879Z,0.00
2018-08-22T00:50:14.870Z,0.00
2018-08-22T00:51:14.861Z,0.00
2018-08-22T00:52:14.868Z,0.00
2018-08-22T00:53:14.836Z,0.00
2018-08-22T00:54:14.828Z,0.00
2018-08-22T00:55:14.812Z,0.00
2018-08-22T00:56:14.803Z,0.00
2018-08-22T00:57:14.818Z,0.00
2018-08-22T00:58:14.785Z,0.00
2018-08-22T00:59:14.770Z,0.00
2018-08-22T01:00:14.762Z,0.00
2018-08-22T01:01:14.751Z,0.00
2018-08-22T01:02:14.780Z,0.00
2018-08-22T01:03:14.719Z,0.00
2018-08-22T01:04:14.706Z,0.00
2018-08-22T01:05:14.705Z,0.00
2018-08-22T01:06:14.685Z,0.00
2018-08-22T01:07:14.706Z,0.00
2018-08-22T01:08:14.670Z,0.00
2018-08-22T01:09:14.654Z,0.00
2018-08-22T01:10:14.639Z,0.00
2018-08-22T01:11:14.630Z,0.00
2018-08-22T01:12:14.642Z,0.00
2018-08-22T01:13:14.604Z,0.00
2018-08-22T01:14:14.590Z,0.00
2018-08-22T01:15:14.581Z,0.00
2018-08-22T01:16:14.565Z,0.00
2018-08-22T01:17:14.586Z,0.00
2018-08-22T01:18:14.548Z,0.00
2018-08-22T01:19:14.535Z,0.00
2018-08-22T01:20:14.527Z,0.00
2018-08-22T01:21:14.507Z,0.00
2018-08-22T01:22:14.523Z,0.00
2018-08-22T01:23:14.494Z,0.00
2018-08-22T01:24:14.481Z,0.00
2018-08-22T01:25:14.470Z,0.00
2018-08-22T01:26:14.453Z,0.00
2018-08-22T01:27:14.467Z,0.00
2018-08-22T01:28:14.431Z,0.00
2018-08-22T01:29:14.417Z,0.00
2018-08-22T01:30:14.441Z,0.00
2018-08-22T01:31:14.388Z,0.00
2018-08-22T01:32:14.378Z,0.00
2018-08-22T01:33:14.370Z,0.00
2018-08-22T01:34:14.362Z,0.00
2018-08-22T01:35:14.340Z,0.00
2018-08-22T01:36:14.359Z,0.00
2018-08-22T01:37:14.318Z,0.00
2018-08-22T01:38:14.304Z,0.00
2018-08-22T01:39:14.301Z,0.00
2018-08-22T01:40:14.284Z,0.00
2018-08-22T01:41:14.299Z,0.00
2018-08-22T01:42:14.266Z,0.00
2018-08-22T01:43:14.253Z,0.00
2018-08-22T01:44:14.234Z,0.00
2018-08-22T01:45:14.228Z,0.00
2018-08-22T01:46:14.250Z,0.00
2018-08-22T01:47:14.202Z,0.00
2018-08-22T01:48:14.193Z,0.00
2018-08-22T01:49:14.177Z,0.00
2018-08-22T01:50:14.168Z,0.00
2018-08-22T01:51:14.155Z,0.00
2018-08-22T01:52:14.168Z,0.00
2018-08-22T01:53:14.136Z,0.00
2018-08-22T01:54:14.120Z,0.00
2018-08-22T01:55:14.113Z,0.00
2018-08-22T01:56:14.100Z,0.00
2018-08-22T01:57:14.115Z,0.00
2018-08-22T01:58:14.076Z,0.00
2018-08-22T01:59:14.067Z,0.00
2018-08-22T02:00:14.050Z,0.00
2018-08-22T02:01:14.041Z,0.00
2018-08-22T02:02:14.050Z,0.00
2018-08-22T02:03:14.019Z,0.00
2018-08-22T02:04:14.003Z,0.00
2018-08-22T02:05:13.995Z,0.00
2018-08-22T02:06:13.980Z,0.00
2018-08-22T02:07:14.004Z,0.00
2018-08-22T02:08:13.962Z,0.00
2018-08-22T02:09:13.946Z,0.00
2018-08-22T02:10:13.936Z,0.00
2018-08-22T02:11:13.926Z,0.00
2018-08-22T02:12:13.911Z,0.00
2018-08-22T02:13:13.918Z,0.00
2018-08-22T02:14:13.893Z,0.00
2018-08-22T02:15:13.880Z,0.00
2018-08-22T02:16:13.870Z,0.00
2018-08-22T02:17:13.880Z,0.00
2018-08-22T02:18:13.841Z,0.00
2018-08-22T02:19:13.837Z,0.00
2018-08-22T02:20:13.817Z,0.00
2018-08-22T02:21:13.812Z,0.00
2018-08-22T02:22:13.817Z,0.00
2018-08-22T02:23:13.790Z,0.00
2018-08-22T02:24:13.781Z,0.00
2018-08-22T02:25:13.844Z,0.00
2018-08-22T02:26:13.756Z,0.00
2018-08-22T02:27:13.737Z,0.00
2018-08-22T02:28:13.762Z,0.00
2018-08-22T02:29:13.716Z,0.00
2018-08-22T02:30:13.707Z,0.00
2018-08-22T02:31:13.693Z,0.00
2018-08-22T02:32:13.680Z,0.00
2018-08-22T02:33:13.672Z,0.00
2018-08-22T02:34:13.683Z,0.00
2018-08-22T02:35:13.652Z,0.00
2018-08-22T02:36:13.636Z,0.00
2018-08-22T02:37:13.626Z,0.00
2018-08-22T02:38:13.613Z,0.00
2018-08-22T02:39:13.634Z,0.00
2018-08-22T02:40:13.590Z,0.00
2018-08-22T02:41:13.576Z,0.00
2018-08-22T02:42:13.569Z,0.00
2018-08-22T02:43:13.552Z,0.00
2018-08-22T02:44:13.541Z,0.00
2018-08-22T02:45:13.564Z,0.00
2018-08-22T02:46:13.521Z,0.00
2018-08-22T02:47:13.510Z,0.00
2018-08-22T02:48:13.500Z,0.00
2018-08-22T02:49:13.483Z,0.00
2018-08-22T02:50:13.475Z,0.00
2018-08-22T02:51:13.496Z,0.00
2018-08-22T02:52:13.452Z,0.00
2018-08-22T02:53:13.437Z,0.00
2018-08-22T02:54:13.422Z,0.00
2018-08-22T02:55:13.420Z,0.00
2018-08-22T02:56:13.404Z,0.00
2018-08-22T02:57:13.417Z,0.00
2018-08-22T02:58:13.388Z,0.00
2018-08-22T02:59:13.365Z,0.00
2018-08-22T03:00:13.359Z,0.00
2018-08-22T03:01:13.350Z,0.00
2018-08-22T03:02:13.363Z,0.00
2018-08-22T03:03:13.328Z,0.00
2018-08-22T03:04:13.311Z,0.00
2018-08-22T03:05:13.300Z,0.00
2018-08-22T03:06:13.290Z,0.00
2018-08-22T03:07:13.302Z,0.00
2018-08-22T03:08:13.269Z,0.00
2018-08-22T03:09:13.249Z,0.00
2018-08-22T03:10:13.270Z,0.00
2018-08-22T03:11:13.226Z,0.00
2018-08-22T03:12:13.248Z,0.00
2018-08-22T03:13:13.212Z,0.00
2018-08-22T03:14:13.191Z,0.00
2018-08-22T03:15:13.192Z,0.00
2018-08-22T03:16:13.182Z,0.00
2018-08-22T03:17:13.156Z,0.00
2018-08-22T03:18:13.177Z,0.00
2018-08-22T03:19:13.140Z,0.00
2018-08-22T03:20:13.128Z,0.00
2018-08-22T03:21:13.114Z,0.00
2018-08-22T03:22:13.099Z,0.00
2018-08-22T03:23:13.128Z,0.00
2018-08-22T03:24:13.078Z,0.00
2018-08-22T03:25:13.073Z,0.00
2018-08-22T03:26:13.081Z,0.00
2018-08-22T03:27:13.045Z,0.00
2018-08-22T03:28:13.038Z,0.00
2018-08-22T03:29:13.051Z,0.00
2018-08-22T03:30:13.010Z,0.00
2018-08-22T03:31:12.999Z,0.00
2018-08-22T03:32:12.989Z,0.00
2018-08-22T03:33:12.974Z,0.00
2018-08-22T03:34:12.967Z,0.00
2018-08-22T03:35:12.986Z,0.00
2018-08-22T03:36:12.938Z,0.00
2018-08-22T03:37:12.931Z,0.00
2018-08-22T03:38:12.914Z,0.00
2018-08-22T03:39:12.909Z,0.00
2018-08-22T03:40:12.897Z,0.00
2018-08-22T03:41:12.901Z,0.00
2018-08-22T03:42:12.874Z,0.00
2018-08-22T03:43:12.852Z,0.00
2018-08-22T03:44:12.841Z,0.00
2018-08-22T03:45:12.839Z,0.00
2018-08-22T03:46:12.842Z,0.00
2018-08-22T03:47:12.819Z,0.00
2018-08-22T03:48:12.800Z,0.00
2018-08-22T03:49:12.791Z,0.00
2018-08-22T03:50:12.774Z,0.00
2018-08-22T03:51:12.798Z,0.00
2018-08-22T03:52:12.754Z,0.00
2018-08-22T03:53:12.739Z,0.00
2018-08-22T03:54:12.731Z,0.00
2018-08-22T03:55:12.716Z,0.00
2018-08-22T03:56:12.702Z,0.00
2018-08-22T03:57:12.735Z,0.00
2018-08-22T03:58:12.679Z,0.00
2018-08-22T03:59:12.679Z,0.00
2018-08-22T04:00:12.664Z,0.00
2018-08-22T04:01:12.642Z,0.00
2018-08-22T04:02:12.639Z,0.00
2018-08-22T04:03:12.644Z,0.00
2018-08-22T04:04:12.612Z,0.00
2018-08-22T04:05:12.602Z,0.00
2018-08-22T04:06:12.592Z,0.00
2018-08-22T04:07:12.572Z,0.00
2018-08-22T04:08:12.589Z,0.00
2018-08-22T04:09:12.552Z,0.00
2018-08-22T04:10:12.536Z,0.00
2018-08-22T04:11:12.533Z,0.00
2018-08-22T04:12:12.512Z,0.00
2018-08-22T04:13:12.534Z,0.00
2018-08-22T04:14:12.499Z,0.00
2018-08-22T04:15:12.480Z,0.00
2018-08-22T04:16:12.474Z,0.00
2018-08-22T04:17:12.455Z,0.00
2018-08-22T04:18:12.443Z,0.00
2018-08-22T04:19:12.457Z,0.00
2018-08-22T04:20:12.423Z,5.62
2018-08-22T04:21:12.408Z,5.62
2018-08-22T04:22:12.399Z,5.62
2018-08-22T04:23:12.386Z,5.62
2018-08-22T04:24:12.404Z,5.62
2018-08-22T04:25:12.367Z,5.62
2018-08-22T04:26:12.349Z,11.25
2018-08-22T04:27:12.340Z,11.25
2018-08-22T04:28:12.331Z,11.25
2018-08-22T04:29:12.316Z,11.25
2018-08-22T04:30:12.332Z,11.25
2018-08-22T04:31:12.287Z,16.88
2018-08-22T04:32:12.279Z,16.88
2018-08-22T04:33:12.272Z,16.88
2018-08-22T04:34:12.252Z,16.88
2018-08-22T04:35:12.278Z,22.50
2018-08-22T04:36:12.232Z,22.50
2018-08-22T04:37:12.222Z,22.50
2018-08-22T04:38:12.207Z,28.12
2018-08-22T04:39:12.200Z,28.12
2018-08-22T04:40:12.183Z,28.12
2018-08-22T04:41:12.211Z,33.75
2018-08-22T04:42:12.159Z,33.75
2018-08-22T04:43:12.156Z,39.38
2018-08-22T04:44:12.139Z,39.38
2018-08-22T04:45:12.127Z,39.38
2018-08-22T04:46:12.111Z,45.00
2018-08-22T04:47:12.129Z,45.00
2018-08-22T04:48:12.136Z,50.62
2018-08-22T04:49:12.077Z,50.62
2018-08-22T04:50:12.076Z,50.62
2018-08-22T04:51:12.053Z,56.25
2018-08-22T04:52:12.081Z,56.25
2018-08-22T04:53:12.034Z,61.88
2018-08-22T04:54:12.019Z,61.88
2018-08-22T04:55:12.016Z,67.50
2018-08-22T04:56:12.005Z,67.50
2018-08-22T04:57:11.988Z,73.12
2018-08-22T04:58:12.008Z,73.12
2018-08-22T04:59:11.964Z,78.75
2018-08-22T05:00:11.953Z,78.75
2018-08-22T05:01:11.944Z,84.38
2018-08-22T05:02:11.931Z,84.38
2018-08-22T05:03:11.914Z,84.38
2018-08-22T05:04:11.941Z,84.38
2018-08-22T05:05:11.900Z,84.38
2018-08-22T05:06:11.887Z,84.38
2018-08-22T05:07:11.874Z,84.38
2018-08-22T05:08:11.866Z,84.38
2018-08-22T05:09:11.846Z,90.00
2018-08-22T05:10:11.859Z,95.62
2018-08-22T05:11:11.828Z,95.62
2018-08-22T05:12:11.810Z,101.25
2018-08-22T05:13:11.808Z,106.88
2018-08-22T05:14:11.793Z,112.50
2018-08-22T05:15:11.805Z,112.50
2018-08-22T05:16:11.765Z,118.12
2018-08-22T05:17:11.758Z,123.75
2018-08-22T05:18:11.747Z,129.38
2018-08-22T05:19:11.731Z,135.00
2018-08-22T05:20:11.759Z,140.62
2018-08-22T05:21:11.705Z,146.25
2018-08-22T05:22:11.698Z,151.88
2018-08-22T05:23:11.682Z,151.88
2018-08-22T05:24:11.677Z,157.50
2018-08-22T05:25:11.664Z,163.12
2018-08-22T05:26:11.683Z,168.75
2018-08-22T05:27:11.646Z,174.38
2018-08-22T05:28:11.627Z,180.00
2018-08-22T05:29:11.620Z,185.62
2018-08-22T05:30:11.675Z,191.25
2018-08-22T05:31:11.590Z,196.88
2018-08-22T05:32:11.611Z,208.12
2018-08-22T05:33:11.576Z,213.75
2018-08-22T05:34:11.565Z,225.00
2018-08-22T05:35:11.544Z,236.25
2018-08-22T05:36:11.532Z,247.50
2018-08-22T05:37:11.553Z,247.50
2018-08-22T05:38:11.507Z,258.75
2018-08-22T05:39:11.499Z,264.38
2018-08-22T05:40:11.494Z,270.00
2018-08-22T05:41:11.472Z,275.62
2018-08-22T05:42:11.503Z,275.62
2018-08-22T05:43:11.449Z,275.62
2018-08-22T05:44:11.446Z,275.62
2018-08-22T05:45:11.429Z,275.62
2018-08-22T05:46:11.424Z,275.62
2018-08-22T05:47:11.403Z,275.62
2018-08-22T05:48:11.412Z,281.25
2018-08-22T05:49:11.409Z,286.88
2018-08-22T05:50:11.365Z,292.50
2018-08-22T05:51:11.362Z,298.12
2018-08-22T05:52:11.346Z,298.12
2018-08-22T05:53:11.368Z,298.12
2018-08-22T05:54:11.324Z,298.12
2018-08-22T05:55:11.305Z,298.12
2018-08-22T05:56:11.296Z,298.12
2018-08-22T05:57:11.290Z,303.75
2018-08-22T05:58:11.269Z,309.38
2018-08-22T05:59:11.301Z,309.38
2018-08-22T06:00:11.248Z,315.00
2018-08-22T06:01:11.241Z,320.62
2018-08-22T06:02:11.224Z,331.88
2018-08-22T06:03:11.238Z,343.12
2018-08-22T06:04:11.201Z,354.38
2018-08-22T06:05:11.225Z,365.62
2018-08-22T06:06:11.178Z,365.62
2018-08-22T06:07:11.168Z,376.88
2018-08-22T06:08:11.158Z,388.12
2018-08-22T06:09:11.211Z,427.50
2018-08-22T06:10:11.129Z,708.75
2018-08-22T06:11:11.143Z,832.50
2018-08-22T06:12:11.113Z,877.50
2018-08-22T06:13:11.095Z,832.50
2018-08-22T06:14:11.090Z,759.38
2018-08-22T06:15:11.073Z,708.75
2018-08-22T06:16:11.082Z,877.50
2018-08-22T06:17:11.059Z,984.38
2018-08-22T06:18:11.036Z,1108.12
2018-08-22T06:19:11.032Z,1113.75
2018-08-22T06:20:11.018Z,1108.12
2018-08-22T06:21:11.027Z,973.12
2018-08-22T06:22:10.994Z,815.62
2018-08-22T06:23:10.978Z,911.25
2018-08-22T06:24:10.968Z,933.75
2018-08-22T06:25:10.959Z,911.25
2018-08-22T06:26:10.979Z,905.62
2018-08-22T06:27:10.935Z,1023.75
2018-08-22T06:28:10.925Z,984.38
2018-08-22T06:29:10.914Z,950.62
2018-08-22T06:30:10.894Z,1040.62
2018-08-22T06:31:10.892Z,1074.38
2018-08-22T06:32:10.904Z,1220.62
2018-08-22T06:33:10.861Z,1057.50
2018-08-22T06:34:10.858Z,950.62
2018-08-22T06:35:10.839Z,961.88
2018-08-22T06:36:10.849Z,922.50
2018-08-22T06:37:10.895Z,956.25
2018-08-22T06:38:10.808Z,984.38
2018-08-22T06:39:10.798Z,1006.88
2018-08-22T06:40:10.787Z,1170.00
2018-08-22T06:41:10.773Z,1563.75
2018-08-22T06:42:10.768Z,1884.38
2018-08-22T06:43:10.785Z,1456.88
2018-08-22T06:44:10.761Z,1158.75
2018-08-22T06:45:10.726Z,1305.00
2018-08-22T06:46:10.722Z,1248.75
2018-08-22T06:47:10.699Z,1113.75
2018-08-22T06:48:10.688Z,1046.25
2018-08-22T06:49:10.721Z,894.38
2018-08-22T06:50:10.707Z,1023.75
2018-08-22T06:51:10.661Z,1535.62
2018-08-22T06:52:10.641Z,2103.75
2018-08-22T06:53:10.638Z,1766.25
2018-08-22T06:54:10.627Z,1181.25
2018-08-22T06:55:10.638Z,995.62
2018-08-22T06:56:10.598Z,1108.12
2018-08-22T06:57:10.593Z,1451.25
2018-08-22T06:58:10.575Z,1918.12
2018-08-22T06:59:10.596Z,1906.88
2018-08-22T07:00:10.550Z,1361.25
2018-08-22T07:01:10.546Z,1153.12
2018-08-22T07:02:10.533Z,1355.62
2018-08-22T07:03:10.517Z,1726.88
2018-08-22T07:04:10.515Z,1918.12
2018-08-22T07:05:10.518Z,1411.88
2018-08-22T07:06:10.488Z,1063.12
2018-08-22T07:07:10.474Z,1203.75
2018-08-22T07:08:10.513Z,1327.50
2018-08-22T07:09:10.445Z,1310.62
2018-08-22T07:10:10.474Z,1254.38
2018-08-22T07:11:10.428Z,1248.75
2018-08-22T07:12:10.417Z,1299.38
2018-08-22T07:13:10.401Z,1243.12
2018-08-22T07:14:10.504Z,1265.62
2018-08-22T07:15:10.388Z,1361.25
2018-08-22T07:16:10.393Z,1293.75
2018-08-22T07:17:10.359Z,1175.62
2018-08-22T07:18:10.346Z,1254.38
2018-08-22T07:19:10.338Z,1327.50
2018-08-22T07:20:10.327Z,1260.00
2018-08-22T07:21:10.335Z,1479.38
2018-08-22T07:22:10.303Z,1749.38
2018-08-22T07:23:10.289Z,1501.88
2018-08-22T07:24:10.281Z,1473.75
2018-08-22T07:25:10.265Z,1648.12
2018-08-22T07:26:10.283Z,1462.50
2018-08-22T07:27:10.242Z,1608.75
2018-08-22T07:28:10.230Z,1805.62
2018-08-22T07:29:10.223Z,1535.62
2018-08-22T07:30:10.259Z,1507.50
2018-08-22T07:31:10.233Z,1468.12
2018-08-22T07:32:10.189Z,1344.38
2018-08-22T07:33:10.175Z,1445.62
2018-08-22T07:34:10.161Z,1456.88
2018-08-22T07:35:10.201Z,1518.75
2018-08-22T07:36:10.148Z,1721.25
2018-08-22T07:37:10.158Z,1659.38
2018-08-22T07:38:10.126Z,1777.50
2018-08-22T07:39:10.106Z,1929.38
2018-08-22T07:40:10.097Z,2058.75
2018-08-22T07:41:10.090Z,2154.38
2018-08-22T07:42:10.107Z,1738.12
2018-08-22T07:43:10.067Z,1631.25
2018-08-22T07:44:10.055Z,1676.25
2018-08-22T07:45:10.042Z,1732.50
2018-08-22T07:46:10.034Z,1828.12
2018-08-22T07:47:10.090Z,1811.25
2018-08-22T07:48:10.040Z,1850.62
2018-08-22T07:49:10.002Z,1873.12
2018-08-22T07:50:10.038Z,2053.12
2018-08-22T07:51:09.977Z,2019.38
2018-08-22T07:52:09.967Z,1839.38
2018-08-22T07:53:09.990Z,1929.38
2018-08-22T07:54:09.976Z,1935.00
2018-08-22T07:55:09.930Z,2070.00
2018-08-22T07:56:09.932Z,2120.62
2018-08-22T07:57:09.913Z,2109.38
2018-08-22T07:58:09.900Z,2244.38
2018-08-22T07:59:09.886Z,2340.00
2018-08-22T08:00:10.189Z,2311.88
2018-08-22T08:01:09.866Z,2238.75
2018-08-22T08:02:10.869Z,2272.50
2018-08-22T08:03:09.907Z,2345.62
2018-08-22T08:04:09.828Z,2418.75
2018-08-22T08:05:09.850Z,2441.25
2018-08-22T08:06:09.859Z,2604.38
2018-08-22T08:07:09.803Z,2649.38
2018-08-22T08:08:09.790Z,2615.62
2018-08-22T08:09:09.776Z,3048.75
2018-08-22T08:10:09.951Z,3915.00
2018-08-22T08:11:09.752Z,4263.75
2018-08-22T08:12:09.749Z,3633.75
2018-08-22T08:13:09.731Z,2756.25
2018-08-22T08:14:09.791Z,2115.00
2018-08-22T08:15:09.743Z,1912.50
2018-08-22T08:16:09.711Z,1873.12
2018-08-22T08:17:09.728Z,1788.75
2018-08-22T08:18:09.729Z,1726.88
2018-08-22T08:19:09.673Z,1715.62
2018-08-22T08:20:09.676Z,1676.25
2018-08-22T08:21:09.672Z,1687.50
2018-08-22T08:22:09.639Z,1710.00
2018-08-22T08:23:09.625Z,1749.38
2018-08-22T08:24:09.734Z,1783.12
2018-08-22T08:25:09.600Z,1800.00
2018-08-22T08:26:09.646Z,1794.38
2018-08-22T08:27:09.579Z,1828.12
2018-08-22T08:28:09.570Z,1856.25
2018-08-22T08:29:09.557Z,1822.50
2018-08-22T08:30:09.550Z,1816.88
2018-08-22T08:31:09.566Z,1822.50
2018-08-22T08:32:09.549Z,1783.12
2018-08-22T08:33:09.523Z,1839.38
2018-08-22T08:34:09.519Z,1850.62
2018-08-22T08:35:09.530Z,1850.62
2018-08-22T08:36:09.612Z,1743.75
2018-08-22T08:37:09.481Z,1715.62
2018-08-22T08:38:09.464Z,1878.75
2018-08-22T08:39:09.458Z,1816.88
2018-08-22T08:40:09.468Z,1698.75
2018-08-22T08:41:09.441Z,1732.50
2018-08-22T08:42:09.495Z,1845.00
2018-08-22T08:43:09.454Z,1901.25
2018-08-22T08:44:09.451Z,1935.00
2018-08-22T08:45:09.402Z,2092.50
2018-08-22T08:46:09.383Z,2109.38
2018-08-22T08:47:09.432Z,2115.00
2018-08-22T08:48:09.456Z,2002.50
2018-08-22T08:49:09.354Z,1890.00
2018-08-22T08:50:09.346Z,1698.75
2018-08-22T08:51:09.368Z,1850.62
2018-08-22T08:52:09.392Z,1940.62
2018-08-22T08:53:09.540Z,1923.75
2018-08-22T08:54:09.304Z,2047.50
2018-08-22T08:55:09.352Z,2019.38
2018-08-22T08:56:09.382Z,2036.25
2018-08-22T08:57:09.310Z,2148.75
2018-08-22T08:58:09.273Z,2160.00
2018-08-22T08:59:09.291Z,2148.75
2018-08-22T09:00:09.318Z,2131.88
2018-08-22T09:01:09.232Z,2210.62
2018-08-22T09:02:09.229Z,2238.75
2018-08-22T09:03:09.213Z,2148.75
2018-08-22T09:04:09.369Z,2250.00
2018-08-22T09:05:09.195Z,2165.62
2018-08-22T09:06:09.179Z,2070.00
2018-08-22T09:07:09.171Z,1991.25
2018-08-22T09:08:09.167Z,1968.75
2018-08-22T09:09:09.152Z,2019.38
2018-08-22T09:10:09.166Z,1963.12
2018-08-22T09:11:09.141Z,2036.25
2018-08-22T09:12:09.141Z,1800.00
2018-08-22T09:13:09.117Z,1726.88
2018-08-22T09:14:09.106Z,1760.62
2018-08-22T09:15:09.127Z,1861.88
2018-08-22T09:16:09.078Z,2041.88
2018-08-22T09:17:09.110Z,2098.12
2018-08-22T09:18:09.065Z,2086.88
2018-08-22T09:19:09.056Z,2188.12
2018-08-22T09:20:09.041Z,2143.12
2018-08-22T09:21:09.139Z,1980.00
2018-08-22T09:22:09.120Z,2148.75
2018-08-22T09:23:09.010Z,2047.50
2018-08-22T09:24:09.112Z,2036.25
2018-08-22T09:25:09.096Z,2070.00
2018-08-22T09:26:08.981Z,1991.25
2018-08-22T09:27:09.011Z,1901.25
2018-08-22T09:28:09.027Z,1743.75
2018-08-22T09:29:08.986Z,1586.25
2018-08-22T09:30:08.942Z,1856.25
2018-08-22T09:31:08.935Z,1738.12
2018-08-22T09:32:08.922Z,1726.88
2018-08-22T09:33:08.941Z,1822.50
2018-08-22T09:34:08.964Z,1850.62
2018-08-22T09:35:08.939Z,1816.88
2018-08-22T09:36:08.879Z,1726.88
2018-08-22T09:37:08.879Z,1653.75
2018-08-22T09:38:08.890Z,1670.62
2018-08-22T09:39:08.970Z,1659.38
2018-08-22T09:40:08.900Z,1636.88
2018-08-22T09:41:08.830Z,1603.12
2018-08-22T09:42:08.849Z,1558.12
2018-08-22T09:43:08.894Z,1575.00
2018-08-22T09:44:08.839Z,1620.00
2018-08-22T09:45:08.791Z,1653.75
2018-08-22T09:46:08.791Z,1620.00
2018-08-22T09:47:08.780Z,1636.88
2018-08-22T09:48:08.770Z,1586.25
2018-08-22T09:49:08.765Z,1563.75
2018-08-22T09:50:08.866Z,1563.75
2018-08-22T09:51:08.838Z,1496.25
2018-08-22T09:52:08.807Z,1417.50
2018-08-22T09:53:08.708Z,1423.12
2018-08-22T09:54:08.708Z,1451.25
2018-08-22T09:55:08.771Z,1496.25
2018-08-22T09:56:08.708Z,1524.38
2018-08-22T09:57:08.683Z,1524.38
2018-08-22T09:58:08.754Z,1530.00
2018-08-22T09:59:08.706Z,1518.75
2018-08-22T10:00:08.775Z,1513.12
2018-08-22T10:01:08.698Z,1490.62
2018-08-22T10:02:08.630Z,1524.38
2018-08-22T10:03:08.686Z,1513.12
2018-08-22T10:04:08.624Z,1485.00
2018-08-22T10:05:08.602Z,1496.25
2018-08-22T10:06:08.618Z,1490.62
2018-08-22T10:07:08.795Z,1569.38
2018-08-22T10:08:08.653Z,1541.25
2018-08-22T10:09:08.573Z,1563.75
2018-08-22T10:10:08.560Z,1665.00
2018-08-22T10:11:08.548Z,2075.62
2018-08-22T10:12:08.579Z,3335.62
2018-08-22T10:13:08.527Z,4263.75
2018-08-22T10:14:08.696Z,3813.75
2018-08-22T10:15:08.509Z,3279.38
2018-08-22T10:16:08.499Z,2739.38
2018-08-22T10:17:08.503Z,2694.38
2018-08-22T10:18:08.511Z,2542.50
2018-08-22T10:19:08.513Z,2778.75
2018-08-22T10:20:08.552Z,2953.12
2018-08-22T10:21:08.460Z,1974.38
2018-08-22T10:22:08.449Z,1361.25
2018-08-22T10:23:08.459Z,1018.12
2018-08-22T10:24:08.456Z,961.88
2018-08-22T10:25:08.412Z,945.00
2018-08-22T10:26:08.410Z,950.62
2018-08-22T10:27:08.471Z,973.12
2018-08-22T10:28:08.525Z,1006.88
2018-08-22T10:29:08.373Z,995.62
2018-08-22T10:30:08.383Z,984.38
2018-08-22T10:31:08.380Z,967.50
2018-08-22T10:32:08.346Z,950.62
2018-08-22T10:33:08.404Z,939.38
2018-08-22T10:34:08.325Z,922.50
2018-08-22T10:35:08.424Z,922.50
2018-08-22T10:36:08.353Z,911.25
2018-08-22T10:37:08.289Z,900.00
2018-08-22T10:38:08.281Z,877.50
2018-08-22T10:39:08.278Z,877.50
2018-08-22T10:40:08.387Z,866.25
2018-08-22T10:41:08.252Z,883.12
2018-08-22T10:42:08.231Z,894.38
2018-08-22T10:43:08.275Z,900.00
2018-08-22T10:44:08.286Z,843.75
2018-08-22T10:45:08.237Z,900.00
2018-08-22T10:46:08.190Z,849.38
2018-08-22T10:47:08.182Z,871.88
2018-08-22T10:48:08.197Z,843.75
2018-08-22T10:49:08.157Z,838.12
2018-08-22T10:50:08.153Z,843.75
2018-08-22T10:51:08.163Z,832.50
2018-08-22T10:52:08.122Z,871.88
2018-08-22T10:53:08.117Z,883.12
2018-08-22T10:54:08.107Z,871.88
2018-08-22T10:55:08.093Z,860.62
2018-08-22T10:56:08.121Z,838.12
2018-08-22T10:57:08.068Z,781.88
2018-08-22T10:58:08.061Z,832.50
2018-08-22T10:59:08.051Z,855.00
2018-08-22T11:00:08.041Z,843.75
2018-08-22T11:01:08.032Z,810.00
2018-08-22T11:02:08.046Z,776.25
2018-08-22T11:03:08.012Z,748.12
2018-08-22T11:04:08.001Z,742.50
2018-08-22T11:05:07.981Z,731.25
2018-08-22T11:06:07.982Z,720.00
2018-08-22T11:07:07.957Z,725.62
2018-08-22T11:08:07.979Z,748.12
2018-08-22T11:09:07.937Z,731.25
2018-08-22T11:10:07.934Z,714.38
2018-08-22T11:11:07.916Z,742.50
2018-08-22T11:12:07.903Z,725.62
2018-08-22T11:13:07.933Z,720.00
2018-08-22T11:14:07.884Z,731.25
2018-08-22T11:15:07.878Z,736.88
2018-08-22T11:16:07.940Z,759.38
2018-08-22T11:17:07.848Z,765.00
2018-08-22T11:18:07.840Z,753.75
2018-08-22T11:19:07.865Z,759.38
2018-08-22T11:20:07.815Z,714.38
2018-08-22T11:21:07.813Z,770.62
2018-08-22T11:22:07.799Z,770.62
2018-08-22T11:23:07.784Z,770.62
2018-08-22T11:24:07.771Z,781.88
2018-08-22T11:25:07.793Z,759.38
2018-08-22T11:26:07.749Z,742.50
2018-08-22T11:27:07.746Z,731.25
2018-08-22T11:28:07.738Z,714.38
2018-08-22T11:29:07.715Z,703.12
2018-08-22T11:30:07.744Z,686.25
2018-08-22T11:31:07.693Z,686.25
2018-08-22T11:32:07.689Z,675.00
2018-08-22T11:33:07.674Z,680.62
2018-08-22T11:34:07.664Z,691.88
2018-08-22T11:35:07.652Z,691.88
2018-08-22T11:36:07.665Z,691.88
2018-08-22T11:37:07.643Z,697.50
2018-08-22T11:38:07.618Z,697.50
2018-08-22T11:39:07.610Z,703.12
2018-08-22T11:40:07.601Z,720.00
2018-08-22T11:41:07.622Z,753.75
2018-08-22T11:42:07.579Z,765.00
2018-08-22T11:43:07.559Z,781.88
2018-08-22T11:44:07.548Z,736.88
2018-08-22T11:45:07.547Z,714.38
2018-08-22T11:46:07.525Z,691.88
2018-08-22T11:47:07.556Z,826.88
2018-08-22T11:48:07.506Z,905.62
2018-08-22T11:49:07.498Z,866.25
2018-08-22T11:50:07.490Z,838.12
2018-08-22T11:51:07.469Z,832.50
2018-08-22T11:52:07.465Z,832.50
2018-08-22T11:53:07.474Z,821.25
2018-08-22T11:54:07.435Z,731.25
2018-08-22T11:55:07.435Z,697.50
2018-08-22T11:56:07.457Z,697.50
2018-08-22T11:57:07.414Z,849.38
2018-08-22T11:58:07.430Z,871.88
2018-08-22T11:59:07.383Z,894.38
2018-08-22T12:00:07.378Z,843.75
2018-08-22T12:01:07.359Z,821.25
2018-08-22T12:02:07.350Z,843.75
2018-08-22T12:03:07.342Z,843.75
2018-08-22T12:04:07.363Z,905.62
2018-08-22T12:05:07.316Z,916.88
2018-08-22T12:06:07.308Z,798.75
2018-08-22T12:07:07.294Z,759.38
2018-08-22T12:08:07.283Z,776.25
2018-08-22T12:09:07.276Z,911.25
2018-08-22T12:10:07.285Z,973.12
2018-08-22T12:11:07.253Z,950.62
2018-08-22T12:12:07.245Z,900.00
2018-08-22T12:13:07.224Z,871.88
2018-08-22T12:14:07.222Z,843.75
2018-08-22T12:15:07.235Z,826.88
2018-08-22T12:16:07.245Z,815.62
2018-08-22T12:17:07.188Z,815.62
2018-08-22T12:18:07.170Z,781.88
2018-08-22T12:19:07.167Z,753.75
2018-08-22T12:20:07.150Z,798.75
2018-08-22T12:21:07.166Z,832.50
2018-08-22T12:22:07.128Z,883.12
2018-08-22T12:23:07.202Z,911.25
2018-08-22T12:24:07.109Z,871.88
2018-08-22T12:25:07.094Z,843.75
2018-08-22T12:26:07.116Z,832.50
2018-08-22T12:27:07.072Z,815.62
2018-08-22T12:28:07.058Z,798.75
2018-08-22T12:29:07.058Z,753.75
2018-08-22T12:30:07.038Z,725.62
2018-08-22T12:31:07.049Z,714.38
2018-08-22T12:32:07.061Z,714.38
2018-08-22T12:33:07.004Z,691.88
2018-08-22T12:34:07.003Z,703.12
2018-08-22T12:35:06.986Z,697.50
2018-08-22T12:36:06.980Z,703.12
2018-08-22T12:37:06.971Z,703.12
2018-08-22T12:38:06.987Z,624.38
2018-08-22T12:39:06.942Z,725.62